createdAt,value
2023-01-30T00:00:19.350Z,14.32
2023-01-30T00:01:27.203Z,13.90
2023-01-30T00:02:30.291Z,13.05
2023-01-30T00:03:34.489Z,13.43
2023-01-30T00:04:37.660Z,13.40
2023-01-30T00:05:40.689Z,13.57
2023-01-30T00:06:43.838Z,15.15
2023-01-30T00:07:48.128Z,14.57
2023-01-30T00:08:51.515Z,13.70
2023-01-30T00:09:54.744Z,16.05
2023-01-30T00:10:57.840Z,13.05
2023-01-30T00:12:01.134Z,14.32
2023-01-30T00:13:04.306Z,12.88
2023-01-30T00:14:07.457Z,13.25
2023-01-30T00:15:10.928Z,13.85
2023-01-30T00:16:14.407Z,12.57
2023-01-30T00:17:17.571Z,15.70
2023-01-30T00:18:20.747Z,13.00
2023-01-30T00:19:23.949Z,12.95
2023-01-30T00:20:27.152Z,12.85
2023-01-30T00:21:30.303Z,12.55
2023-01-30T00:22:33.354Z,12.35
2023-01-30T00:23:37.762Z,12.98
2023-01-30T00:24:40.905Z,12.50
2023-01-30T00:25:46.399Z,13.90
2023-01-30T00:26:49.649Z,12.93
2023-01-30T00:27:53.115Z,12.35
2023-01-30T00:28:56.171Z,13.13
2023-01-30T00:30:03.214Z,11.98
2023-01-30T00:31:07.950Z,10.82
2023-01-30T00:32:11.085Z,12.30
2023-01-30T00:33:17.643Z,12.32
2023-01-30T00:34:20.806Z,13.02
2023-01-30T00:35:28.716Z,12.27
2023-01-30T00:36:32.049Z,13.63
2023-01-30T00:37:35.424Z,11.75
2023-01-30T00:38:38.628Z,11.15
2023-01-30T00:39:43.655Z,10.20
2023-01-30T00:40:47.919Z,11.02
2023-01-30T00:42:09.791Z,10.05
2023-01-30T00:43:37.193Z,11.15
2023-01-30T00:44:58.830Z,10.88
2023-01-30T00:46:25.172Z,10.68
2023-01-30T00:47:29.711Z,11.07
2023-01-30T00:48:33.117Z,11.65
2023-01-30T00:49:37.781Z,11.25
2023-01-30T00:50:43.750Z,10.55
2023-01-30T00:51:48.410Z,10.63
2023-01-30T00:52:51.990Z,10.32
2023-01-30T00:53:55.236Z,10.43
2023-01-30T00:54:58.342Z,10.27
2023-01-30T00:56:01.454Z,10.82
2023-01-30T00:57:04.723Z,10.98
2023-01-30T00:58:08.178Z,11.38
2023-01-30T00:59:11.351Z,10.18
2023-01-30T01:00:17.258Z,10.50
2023-01-30T01:01:20.428Z,10.05
2023-01-30T01:02:23.738Z,10.40
2023-01-30T01:03:26.818Z,10.25
2023-01-30T01:04:29.996Z,10.85
2023-01-30T01:05:33.254Z,9.93
2023-01-30T01:06:38.072Z,10.70
2023-01-30T01:07:41.252Z,9.60
2023-01-30T01:08:44.908Z,9.70
2023-01-30T01:09:48.050Z,10.10
2023-01-30T01:10:51.330Z,10.30
2023-01-30T01:11:54.496Z,9.30
2023-01-30T01:12:57.678Z,9.07
2023-01-30T01:14:04.003Z,9.50
2023-01-30T01:15:07.777Z,10.02
2023-01-30T01:16:10.994Z,8.68
2023-01-30T01:17:14.134Z,9.95
2023-01-30T01:18:17.299Z,8.48
2023-01-30T01:19:20.368Z,9.32
2023-01-30T01:20:23.860Z,10.18
2023-01-30T01:21:27.162Z,9.80
2023-01-30T01:22:30.339Z,9.60
2023-01-30T01:23:33.613Z,9.45
2023-01-30T01:24:37.757Z,9.15
2023-01-30T01:25:41.008Z,9.82
2023-01-30T01:26:45.119Z,9.85
2023-01-30T01:27:48.961Z,9.30
2023-01-30T01:28:59.576Z,10.00
2023-01-30T01:30:02.877Z,9.38
2023-01-30T01:31:12.025Z,8.43
2023-01-30T01:32:15.326Z,8.90
2023-01-30T01:33:18.804Z,8.52
2023-01-30T01:34:21.914Z,9.40
2023-01-30T01:35:24.966Z,9.43
2023-01-30T01:37:55.862Z,8.18
2023-01-30T01:38:59.110Z,8.73
2023-01-30T01:40:21.244Z,10.38
2023-01-30T01:41:24.543Z,9.38
2023-01-30T01:42:33.440Z,9.25
2023-01-30T01:43:59.535Z,10.57
2023-01-30T01:45:24.698Z,8.80
2023-01-30T01:46:46.292Z,8.85
2023-01-30T01:48:11.761Z,9.85
2023-01-30T01:49:20.863Z,9.18
2023-01-30T01:50:41.286Z,9.10
2023-01-30T01:52:11.682Z,8.68
2023-01-30T01:53:18.296Z,9.35
2023-01-30T01:54:42.324Z,9.43
2023-01-30T01:55:50.005Z,8.63
2023-01-30T01:56:53.596Z,9.45
2023-01-30T01:58:13.430Z,8.48
2023-01-30T01:59:28.482Z,8.25
2023-01-30T02:00:33.106Z,8.98
2023-01-30T02:01:36.589Z,8.90
2023-01-30T02:02:49.766Z,8.15
2023-01-30T02:04:01.963Z,8.93
2023-01-30T02:05:06.673Z,8.45
2023-01-30T02:06:12.096Z,8.25
2023-01-30T02:07:20.810Z,8.48
2023-01-30T02:08:48.054Z,9.27
2023-01-30T02:09:52.192Z,8.82
2023-01-30T02:11:21.373Z,8.85
2023-01-30T02:12:25.680Z,8.73
2023-01-30T02:13:30.427Z,8.50
2023-01-30T02:14:35.875Z,8.10
2023-01-30T02:15:39.283Z,8.38
2023-01-30T02:16:46.196Z,7.78
2023-01-30T02:17:49.476Z,8.60
2023-01-30T02:18:53.100Z,8.13
2023-01-30T02:20:37.979Z,7.72
2023-01-30T02:21:54.139Z,7.47
2023-01-30T02:23:37.906Z,7.80
2023-01-30T02:25:08.256Z,7.15
2023-01-30T02:26:59.456Z,7.55
2023-01-30T02:28:39.936Z,7.20
2023-01-30T02:30:13.768Z,6.88
2023-01-30T02:31:47.913Z,7.50
2023-01-30T02:33:30.599Z,6.95
2023-01-30T02:34:51.928Z,7.20
2023-01-30T02:36:34.615Z,7.28
2023-01-30T02:37:49.924Z,6.80
2023-01-30T02:39:11.055Z,6.78
2023-01-30T02:40:39.550Z,6.70
2023-01-30T02:42:20.429Z,6.25
2023-01-30T02:43:44.683Z,6.70
2023-01-30T02:45:35.156Z,6.72
2023-01-30T02:46:43.632Z,5.78
2023-01-30T02:48:06.694Z,6.05
2023-01-30T02:49:14.547Z,6.30
2023-01-30T02:50:36.013Z,6.32
2023-01-30T02:51:42.690Z,7.25
2023-01-30T02:52:46.885Z,6.20
2023-01-30T02:53:51.076Z,6.75
2023-01-30T02:54:55.782Z,6.28
2023-01-30T02:56:00.579Z,6.20
2023-01-30T02:57:03.818Z,6.78
2023-01-30T02:58:07.594Z,6.03
2023-01-30T02:59:11.035Z,7.18
2023-01-30T03:00:22.542Z,6.28
2023-01-30T03:02:05.997Z,6.28
2023-01-30T03:04:10.208Z,5.82
2023-01-30T03:05:19.680Z,5.68
2023-01-30T03:07:16.980Z,6.00
2023-01-30T03:08:45.474Z,5.72
2023-01-30T03:10:29.715Z,6.35
2023-01-30T03:12:00.848Z,6.03
2023-01-30T03:13:29.102Z,5.95
2023-01-30T03:14:45.019Z,6.15
2023-01-30T03:16:24.923Z,5.40
2023-01-30T03:17:30.041Z,5.55
2023-01-30T03:18:33.307Z,6.07
2023-01-30T03:19:36.987Z,5.38
2023-01-30T03:20:41.400Z,5.88
2023-01-30T03:21:45.623Z,6.32
2023-01-30T03:22:51.526Z,5.10
2023-01-30T03:23:54.668Z,5.97
2023-01-30T03:24:58.007Z,5.40
2023-01-30T03:26:05.030Z,6.38
2023-01-30T03:27:12.786Z,6.13
2023-01-30T03:28:21.323Z,6.70
2023-01-30T03:29:25.431Z,6.55
2023-01-30T03:30:28.630Z,6.22
2023-01-30T03:31:40.583Z,5.85
2023-01-30T03:32:43.908Z,5.78
2023-01-30T03:33:48.968Z,6.05
2023-01-30T03:34:52.064Z,6.22
2023-01-30T03:35:55.663Z,5.88
2023-01-30T03:37:00.474Z,6.68
2023-01-30T03:38:03.892Z,6.00
2023-01-30T03:39:07.033Z,7.57
2023-01-30T03:40:13.312Z,6.28
2023-01-30T03:41:16.675Z,8.07
2023-01-30T03:42:19.990Z,7.47
2023-01-30T03:43:23.493Z,6.25
2023-01-30T03:44:26.684Z,6.85
2023-01-30T03:45:30.091Z,6.32
2023-01-30T03:46:33.243Z,6.15
2023-01-30T03:47:36.385Z,6.20
2023-01-30T03:48:39.556Z,7.60
2023-01-30T03:49:43.561Z,6.68
2023-01-30T03:50:46.652Z,6.90
2023-01-30T03:51:49.942Z,7.00
2023-01-30T03:52:53.929Z,6.65
2023-01-30T03:53:58.182Z,7.05
2023-01-30T03:55:01.493Z,5.38
2023-01-30T03:56:05.482Z,6.70
2023-01-30T03:57:10.762Z,7.35
2023-01-30T03:58:14.225Z,7.05
2023-01-30T03:59:17.292Z,7.10
2023-01-30T04:00:27.047Z,7.03
2023-01-30T04:01:30.374Z,5.65
2023-01-30T04:02:33.599Z,5.85
2023-01-30T04:03:37.584Z,8.00
2023-01-30T04:04:41.110Z,6.90
2023-01-30T04:05:46.459Z,6.43
2023-01-30T04:06:50.455Z,7.50
2023-01-30T04:07:57.961Z,6.95
2023-01-30T04:09:01.031Z,7.53
2023-01-30T04:10:18.475Z,7.25
2023-01-30T04:11:22.623Z,7.05
2023-01-30T04:12:25.706Z,6.97
2023-01-30T04:13:32.045Z,7.50
2023-01-30T04:14:35.404Z,7.85
2023-01-30T04:16:21.855Z,7.47
2023-01-30T04:17:44.563Z,5.65
2023-01-30T04:18:53.571Z,6.68
2023-01-30T04:19:59.256Z,8.43
2023-01-30T04:21:02.921Z,7.10
2023-01-30T04:22:11.438Z,7.15
2023-01-30T04:23:14.731Z,8.05
2023-01-30T04:24:18.021Z,8.05
2023-01-30T04:25:21.467Z,7.13
2023-01-30T04:26:25.178Z,6.85
2023-01-30T04:27:28.485Z,7.93
2023-01-30T04:28:53.896Z,7.47
2023-01-30T04:29:57.231Z,8.07
2023-01-30T04:31:00.729Z,7.22
2023-01-30T04:32:17.072Z,8.13
2023-01-30T04:33:20.384Z,7.50
2023-01-30T04:34:23.739Z,6.90
2023-01-30T04:35:26.926Z,7.28
2023-01-30T04:36:30.283Z,7.75
2023-01-30T04:37:34.031Z,7.25
2023-01-30T04:38:37.603Z,6.95
2023-01-30T04:39:41.377Z,7.82
2023-01-30T04:40:49.759Z,7.80
2023-01-30T04:41:53.477Z,7.82
2023-01-30T04:42:56.638Z,7.43
2023-01-30T04:44:22.368Z,7.63
2023-01-30T04:45:45.654Z,7.60
2023-01-30T04:46:48.755Z,8.82
2023-01-30T04:47:52.536Z,7.50
2023-01-30T04:48:55.685Z,7.65
2023-01-30T04:49:58.919Z,7.57
2023-01-30T04:51:02.076Z,9.18
2023-01-30T04:52:06.119Z,7.97
2023-01-30T04:53:10.041Z,7.03
2023-01-30T04:54:13.906Z,7.82
2023-01-30T04:55:18.351Z,7.60
2023-01-30T04:56:21.958Z,7.22
2023-01-30T04:57:26.309Z,7.95
2023-01-30T04:58:30.075Z,8.35
2023-01-30T04:59:33.456Z,9.20
2023-01-30T05:00:40.107Z,8.98
2023-01-30T05:01:43.492Z,7.60
2023-01-30T05:02:46.729Z,8.57
2023-01-30T05:03:53.982Z,8.25
2023-01-30T05:04:57.085Z,8.43
2023-01-30T05:06:00.183Z,9.23
2023-01-30T05:07:03.619Z,8.65
2023-01-30T05:08:06.858Z,7.55
2023-01-30T05:09:10.030Z,8.48
2023-01-30T05:10:13.341Z,8.15
2023-01-30T05:11:16.834Z,7.63
2023-01-30T05:12:19.933Z,8.73
2023-01-30T05:13:23.073Z,8.68
2023-01-30T05:14:26.351Z,8.60
2023-01-30T05:15:29.477Z,8.73
2023-01-30T05:16:32.940Z,8.20
2023-01-30T05:17:36.609Z,10.88
2023-01-30T05:18:40.136Z,8.18
2023-01-30T05:19:43.291Z,9.15
2023-01-30T05:20:46.389Z,8.73
2023-01-30T05:21:49.668Z,8.50
2023-01-30T05:22:52.854Z,8.70
2023-01-30T05:23:57.364Z,9.10
2023-01-30T05:25:00.540Z,8.82
2023-01-30T05:26:04.792Z,8.60
2023-01-30T05:27:08.108Z,9.00
2023-01-30T05:28:11.222Z,8.30
2023-01-30T05:29:14.365Z,8.20
2023-01-30T05:30:18.094Z,7.30
2023-01-30T05:31:21.511Z,7.95
2023-01-30T05:32:25.673Z,8.52
2023-01-30T05:33:29.706Z,8.20
2023-01-30T05:34:33.069Z,8.15
2023-01-30T05:35:36.345Z,8.40
2023-01-30T05:36:39.528Z,8.05
2023-01-30T05:37:42.803Z,8.70
2023-01-30T05:38:46.403Z,7.25
2023-01-30T05:39:49.582Z,6.78
2023-01-30T05:41:07.682Z,6.95
2023-01-30T05:42:10.857Z,7.05
2023-01-30T05:43:14.073Z,7.53
2023-01-30T05:44:17.300Z,7.90
2023-01-30T05:45:20.647Z,8.20
2023-01-30T05:46:24.354Z,8.52
2023-01-30T05:47:27.616Z,7.45
2023-01-30T05:48:31.399Z,7.68
2023-01-30T05:49:34.473Z,7.47
2023-01-30T05:50:37.625Z,7.28
2023-01-30T05:51:40.899Z,7.00
2023-01-30T05:52:44.128Z,8.00
2023-01-30T05:53:47.606Z,6.75
2023-01-30T05:54:50.807Z,5.47
2023-01-30T05:56:05.787Z,6.72
2023-01-30T05:57:08.877Z,6.68
2023-01-30T05:58:12.608Z,7.10
2023-01-30T05:59:16.472Z,6.43
2023-01-30T06:00:20.367Z,7.15
2023-01-30T06:01:24.026Z,5.72
2023-01-30T06:02:27.186Z,7.03
2023-01-30T06:03:30.472Z,7.15
2023-01-30T06:04:33.735Z,7.30
2023-01-30T06:05:38.734Z,5.93
2023-01-30T06:06:41.912Z,7.38
2023-01-30T06:07:45.199Z,6.53
2023-01-30T06:08:52.467Z,7.07
2023-01-30T06:09:55.621Z,4.90
2023-01-30T06:11:08.312Z,6.50
2023-01-30T06:12:11.420Z,6.68
2023-01-30T06:13:14.515Z,6.38
2023-01-30T06:14:17.701Z,6.88
2023-01-30T06:15:20.958Z,7.55
2023-01-30T06:16:24.184Z,7.22
2023-01-30T06:17:29.100Z,7.05
2023-01-30T06:18:33.273Z,6.53
2023-01-30T06:19:36.473Z,6.75
2023-01-30T06:20:39.657Z,6.65
2023-01-30T06:21:42.958Z,5.57
2023-01-30T06:22:46.183Z,7.20
2023-01-30T06:23:49.691Z,6.88
2023-01-30T06:24:52.809Z,7.63
2023-01-30T06:25:56.139Z,6.72
2023-01-30T06:27:00.104Z,7.40
2023-01-30T06:28:03.278Z,7.28
2023-01-30T06:29:06.537Z,6.45
2023-01-30T06:30:10.803Z,6.22
2023-01-30T06:31:14.140Z,7.20
2023-01-30T06:32:17.675Z,7.25
2023-01-30T06:33:21.377Z,7.47
2023-01-30T06:34:24.609Z,6.07
2023-01-30T06:35:27.958Z,5.82
2023-01-30T06:36:32.651Z,6.85
2023-01-30T06:37:35.959Z,7.03
2023-01-30T06:38:39.214Z,6.82
2023-01-30T06:39:42.333Z,6.75
2023-01-30T06:40:47.787Z,7.35
2023-01-30T06:41:50.961Z,6.85
2023-01-30T06:42:54.064Z,6.35
2023-01-30T06:43:57.242Z,7.68
2023-01-30T06:45:00.408Z,7.05
2023-01-30T06:46:03.645Z,7.28
2023-01-30T06:47:06.979Z,6.65
2023-01-30T06:48:10.428Z,7.22
2023-01-30T06:49:13.733Z,7.05
2023-01-30T06:50:19.236Z,6.57
2023-01-30T06:51:22.387Z,6.90
2023-01-30T06:52:25.561Z,7.43
2023-01-30T06:53:30.820Z,7.03
2023-01-30T06:54:34.047Z,6.20
2023-01-30T06:55:38.158Z,7.07
2023-01-30T06:56:41.605Z,7.45
2023-01-30T06:57:45.960Z,7.22
2023-01-30T06:58:49.105Z,6.30
2023-01-30T06:59:52.350Z,7.43
2023-01-30T07:00:55.837Z,8.30
2023-01-30T07:01:59.018Z,9.02
2023-01-30T07:03:02.489Z,8.80
2023-01-30T07:04:05.891Z,8.02
2023-01-30T07:05:10.708Z,8.35
2023-01-30T07:06:13.951Z,7.80
2023-01-30T07:07:17.108Z,7.78
2023-01-30T07:08:21.377Z,8.02
2023-01-30T07:09:25.637Z,7.85
2023-01-30T07:10:31.994Z,8.63
2023-01-30T07:11:35.083Z,7.93
2023-01-30T07:12:38.326Z,7.90
2023-01-30T07:13:41.480Z,7.47
2023-01-30T07:14:44.728Z,8.20
2023-01-30T07:15:48.165Z,7.30
2023-01-30T07:16:51.399Z,8.23
2023-01-30T07:17:54.892Z,8.80
2023-01-30T07:18:58.813Z,9.52
2023-01-30T07:20:01.971Z,7.80
2023-01-30T07:21:05.394Z,8.00
2023-01-30T07:22:08.440Z,8.05
2023-01-30T07:23:12.224Z,8.13
2023-01-30T07:24:15.450Z,7.90
2023-01-30T07:25:20.589Z,7.35
2023-01-30T07:26:24.958Z,8.80
2023-01-30T07:27:28.256Z,9.80
2023-01-30T07:28:31.487Z,8.85
2023-01-30T07:29:39.838Z,10.00
2023-01-30T07:30:43.308Z,10.60
2023-01-30T07:31:46.624Z,11.18
2023-01-30T07:32:55.186Z,9.77
2023-01-30T07:33:58.309Z,9.85
2023-01-30T07:35:02.065Z,10.93
2023-01-30T07:36:06.447Z,10.65
2023-01-30T07:37:09.825Z,10.20
2023-01-30T07:38:12.894Z,10.85
2023-01-30T07:39:15.996Z,10.57
2023-01-30T07:40:20.748Z,10.18
2023-01-30T07:41:24.029Z,9.50
2023-01-30T07:42:27.111Z,10.65
2023-01-30T07:43:30.517Z,9.63
2023-01-30T07:44:36.680Z,10.25
2023-01-30T07:45:43.366Z,8.60
2023-01-30T07:46:46.556Z,9.90
2023-01-30T07:47:49.791Z,9.05
2023-01-30T07:48:52.941Z,9.93
2023-01-30T07:49:56.058Z,9.07
2023-01-30T07:50:59.555Z,8.45
2023-01-30T07:52:02.701Z,8.93
2023-01-30T07:53:08.325Z,9.40
2023-01-30T07:54:11.458Z,9.15
2023-01-30T07:55:14.678Z,10.32
2023-01-30T07:56:20.018Z,11.93
2023-01-30T07:57:23.340Z,12.07
2023-01-30T07:58:26.463Z,9.65
2023-01-30T07:59:29.609Z,10.65
2023-01-30T08:00:33.277Z,10.43
2023-01-30T08:01:36.332Z,11.43
2023-01-30T08:02:39.529Z,10.02
2023-01-30T08:03:43.884Z,10.52
2023-01-30T08:04:46.979Z,10.32
2023-01-30T08:05:50.147Z,11.10
2023-01-30T08:06:53.389Z,11.20
2023-01-30T08:07:57.345Z,9.80
2023-01-30T08:09:00.461Z,9.00
2023-01-30T08:10:04.130Z,10.40
2023-01-30T08:11:07.941Z,10.48
2023-01-30T08:12:11.723Z,10.30
2023-01-30T08:13:15.248Z,9.00
2023-01-30T08:14:18.449Z,10.60
2023-01-30T08:15:22.937Z,9.85
2023-01-30T08:16:26.547Z,10.57
2023-01-30T08:17:29.754Z,10.55
2023-01-30T08:18:34.924Z,10.40
2023-01-30T08:19:38.020Z,10.88
2023-01-30T08:20:42.864Z,9.95
2023-01-30T08:21:45.992Z,10.93
2023-01-30T08:22:49.206Z,10.82
2023-01-30T08:23:52.353Z,10.25
2023-01-30T08:24:55.472Z,10.57
2023-01-30T08:26:04.279Z,10.77
2023-01-30T08:27:07.508Z,11.82
2023-01-30T08:28:10.600Z,11.35
2023-01-30T08:29:13.754Z,9.90
2023-01-30T08:30:17.901Z,11.45
2023-01-30T08:31:21.424Z,11.15
2023-01-30T08:32:24.660Z,11.82
2023-01-30T08:33:28.474Z,11.27
2023-01-30T08:34:31.983Z,10.80
2023-01-30T08:35:35.179Z,10.88
2023-01-30T08:36:38.374Z,10.23
2023-01-30T08:37:42.850Z,11.32
2023-01-30T08:38:46.044Z,11.80
2023-01-30T08:39:49.341Z,12.48
2023-01-30T08:40:52.510Z,11.63
2023-01-30T08:41:55.734Z,11.63
2023-01-30T08:42:58.965Z,11.05
2023-01-30T08:44:02.217Z,10.52
2023-01-30T08:45:06.230Z,12.23
2023-01-30T08:46:09.420Z,13.18
2023-01-30T08:47:12.671Z,12.90
2023-01-30T08:48:16.079Z,12.68
2023-01-30T08:49:19.396Z,11.88
2023-01-30T08:50:22.524Z,11.88
2023-01-30T08:51:25.749Z,13.13
2023-01-30T08:52:28.875Z,12.27
2023-01-30T08:53:31.997Z,12.02
2023-01-30T08:54:35.084Z,10.77
2023-01-30T08:55:38.513Z,10.68
2023-01-30T08:56:41.951Z,11.75
2023-01-30T08:57:45.291Z,10.52
2023-01-30T08:58:49.227Z,11.32
2023-01-30T08:59:52.884Z,13.10
2023-01-30T09:00:56.199Z,11.02
2023-01-30T09:01:59.582Z,11.95
2023-01-30T09:03:02.960Z,10.20
2023-01-30T09:04:06.269Z,11.25
2023-01-30T09:05:11.129Z,13.10
2023-01-30T09:06:14.864Z,11.95
2023-01-30T09:07:18.024Z,11.40
2023-01-30T09:08:21.161Z,12.27
2023-01-30T09:09:24.460Z,11.13
2023-01-30T09:10:27.653Z,11.10
2023-01-30T09:11:31.428Z,11.45
2023-01-30T09:12:59.866Z,10.40
2023-01-30T09:14:03.006Z,11.40
2023-01-30T09:15:07.208Z,11.60
2023-01-30T09:16:12.622Z,11.43
2023-01-30T09:17:15.940Z,12.27
2023-01-30T09:18:19.050Z,12.25
2023-01-30T09:19:24.613Z,12.88
2023-01-30T09:20:27.960Z,13.80
2023-01-30T09:21:32.194Z,11.00
2023-01-30T09:22:35.690Z,10.65
2023-01-30T09:23:39.320Z,12.10
2023-01-30T09:24:42.654Z,10.93
2023-01-30T09:25:46.866Z,11.20
2023-01-30T09:26:50.001Z,11.98
2023-01-30T09:27:53.248Z,12.02
2023-01-30T09:28:56.327Z,11.27
2023-01-30T09:29:59.561Z,11.38
2023-01-30T09:31:03.293Z,12.13
2023-01-30T09:32:06.647Z,10.75
2023-01-30T09:33:09.757Z,11.85
2023-01-30T09:34:12.919Z,11.85
2023-01-30T09:35:16.215Z,12.45
2023-01-30T09:36:19.423Z,9.15
2023-01-30T09:37:22.726Z,11.48
2023-01-30T09:38:25.839Z,12.25
2023-01-30T09:39:30.038Z,11.27
2023-01-30T09:40:39.652Z,9.93
2023-01-30T09:42:05.826Z,11.13
2023-01-30T09:43:20.545Z,10.27
2023-01-30T09:45:00.721Z,11.00
2023-01-30T09:46:35.022Z,10.13
2023-01-30T09:47:56.617Z,11.57
2023-01-30T09:49:20.345Z,11.65
2023-01-30T09:51:00.718Z,10.93
2023-01-30T09:52:32.589Z,10.90
2023-01-30T09:54:11.244Z,10.93
2023-01-30T09:55:31.023Z,10.10
2023-01-30T09:56:34.234Z,10.52
2023-01-30T09:57:37.336Z,10.10
2023-01-30T09:58:59.987Z,10.90
2023-01-30T10:00:10.242Z,10.75
2023-01-30T10:01:51.268Z,11.07
2023-01-30T10:03:06.739Z,10.68
2023-01-30T10:05:00.195Z,10.82
2023-01-30T10:06:14.755Z,9.73
2023-01-30T10:07:43.213Z,10.60
2023-01-30T10:09:11.402Z,9.43
2023-01-30T10:10:29.513Z,10.25
2023-01-30T10:12:25.457Z,11.02
2023-01-30T10:13:52.389Z,11.27
2023-01-30T10:15:43.502Z,10.57
2023-01-30T10:17:04.854Z,9.52
2023-01-30T10:18:32.847Z,11.68
2023-01-30T10:19:50.098Z,11.52
2023-01-30T10:21:17.596Z,9.73
2023-01-30T10:23:02.208Z,9.80
2023-01-30T10:24:24.819Z,11.05
2023-01-30T10:25:50.492Z,10.15
2023-01-30T10:26:54.465Z,9.35
2023-01-30T10:28:13.254Z,10.68
2023-01-30T10:29:37.944Z,11.35
2023-01-30T10:30:44.194Z,10.90
2023-01-30T10:32:01.205Z,8.25
2023-01-30T10:33:53.409Z,10.25
2023-01-30T10:35:14.008Z,9.10
2023-01-30T10:36:29.645Z,8.82
2023-01-30T10:38:29.100Z,10.63
2023-01-30T10:40:05.758Z,9.63
2023-01-30T10:41:24.400Z,8.82
2023-01-30T10:42:41.039Z,9.95
2023-01-30T10:47:13.747Z,8.32
2023-01-30T10:48:49.984Z,8.98
2023-01-30T10:50:18.124Z,9.13
2023-01-30T10:52:03.937Z,9.82
2023-01-30T10:53:12.506Z,9.95
2023-01-30T10:54:28.740Z,8.40
2023-01-30T10:55:47.067Z,9.45
2023-01-30T10:57:36.397Z,10.00
2023-01-30T10:58:51.655Z,8.13
2023-01-30T11:00:05.681Z,9.60
2023-01-30T11:01:27.039Z,9.05
2023-01-30T11:02:44.905Z,8.27
2023-01-30T11:03:56.421Z,8.07
2023-01-30T11:05:13.085Z,8.95
2023-01-30T11:06:25.118Z,8.52
2023-01-30T11:07:32.573Z,8.80
2023-01-30T11:08:36.766Z,8.68
2023-01-30T11:09:49.467Z,8.70
2023-01-30T11:10:54.205Z,8.45
2023-01-30T11:11:57.719Z,8.80
2023-01-30T11:13:30.220Z,9.40
2023-01-30T11:14:53.228Z,8.02
2023-01-30T11:16:05.736Z,7.60
2023-01-30T11:17:18.434Z,8.32
2023-01-30T11:19:14.751Z,6.93
2023-01-30T11:19:54.374Z,8.65
2023-01-30T11:21:06.595Z,7.95
2023-01-30T11:22:15.213Z,8.10
2023-01-30T11:23:40.656Z,7.90
2023-01-30T11:24:45.730Z,7.88
2023-01-30T11:26:09.244Z,8.40
2023-01-30T11:27:30.042Z,7.00
2023-01-30T11:28:48.702Z,8.50
2023-01-30T11:30:10.451Z,7.93
2023-01-30T11:31:41.830Z,7.00
2023-01-30T11:32:49.925Z,7.40
2023-01-30T11:34:25.763Z,7.85
2023-01-30T11:35:31.027Z,8.25
2023-01-30T11:36:35.991Z,7.90
2023-01-30T11:37:42.310Z,8.50
2023-01-30T11:38:59.457Z,7.60
2023-01-30T11:40:31.181Z,7.90
2023-01-30T11:41:34.371Z,7.80
2023-01-30T11:42:43.700Z,7.95
2023-01-30T11:43:49.428Z,7.03
2023-01-30T11:45:14.863Z,7.68
2023-01-30T11:46:21.407Z,6.55
2023-01-30T11:47:27.696Z,7.75
2023-01-30T11:49:11.124Z,7.57
2023-01-30T11:50:16.867Z,6.93
2023-01-30T11:51:24.952Z,8.13
2023-01-30T11:52:33.702Z,8.30
2023-01-30T11:53:44.387Z,7.57
2023-01-30T11:54:49.004Z,7.78
2023-01-30T11:56:03.855Z,7.90
2023-01-30T11:57:15.835Z,6.88
2023-01-30T11:58:19.329Z,7.35
2023-01-30T11:59:39.301Z,6.97
2023-01-30T12:00:49.288Z,7.03
2023-01-30T12:02:01.897Z,5.75
2023-01-30T12:03:10.741Z,7.38
2023-01-30T12:04:14.442Z,7.30
2023-01-30T12:05:37.062Z,7.30
2023-01-30T12:06:43.149Z,6.97
2023-01-30T12:07:49.351Z,7.35
2023-01-30T12:08:54.958Z,6.90
2023-01-30T12:09:59.671Z,8.05
2023-01-30T12:11:03.331Z,7.80
2023-01-30T12:12:47.952Z,7.60
2023-01-30T12:13:52.899Z,7.43
2023-01-30T12:15:29.849Z,7.57
2023-01-30T12:17:40.964Z,7.85
2023-01-30T12:19:05.847Z,6.95
2023-01-30T12:20:36.102Z,7.07
2023-01-30T12:22:11.915Z,8.05
2023-01-30T12:23:52.701Z,6.75
2023-01-30T12:25:03.483Z,7.93
2023-01-30T12:29:34.373Z,8.35
2023-01-30T12:30:46.554Z,10.30
2023-01-30T12:32:25.273Z,11.48
2023-01-30T12:33:33.295Z,9.52
2023-01-30T12:34:37.478Z,10.10
2023-01-30T12:36:13.861Z,9.93
2023-01-30T12:37:37.785Z,10.02
2023-01-30T12:39:12.786Z,8.07
2023-01-30T12:40:54.067Z,7.97
2023-01-30T12:42:06.553Z,7.85
2023-01-30T12:43:43.482Z,8.63
2023-01-30T12:45:13.715Z,7.72
2023-01-30T12:46:37.546Z,7.43
2023-01-30T12:48:48.323Z,8.93
2023-01-30T12:50:41.215Z,9.18
2023-01-30T12:52:08.967Z,9.38
2023-01-30T12:53:57.007Z,8.35
2023-01-30T12:55:39.744Z,9.25
2023-01-30T12:57:13.845Z,7.53
2023-01-30T12:58:47.562Z,8.00
2023-01-30T13:00:13.643Z,7.85
2023-01-30T13:01:43.280Z,7.00
2023-01-30T13:02:59.437Z,7.85
2023-01-30T13:04:37.568Z,7.47
2023-01-30T13:06:06.769Z,7.18
2023-01-30T13:07:35.933Z,6.97
2023-01-30T13:09:08.122Z,7.88
2023-01-30T13:10:41.405Z,7.50
2023-01-30T13:12:12.318Z,8.73
2023-01-30T13:13:27.558Z,7.95
2023-01-30T13:15:02.724Z,7.82
2023-01-30T13:17:07.092Z,7.93
2023-01-30T13:18:43.772Z,8.15
2023-01-30T13:19:58.717Z,7.70
2023-01-30T13:21:21.979Z,7.78
2023-01-30T13:22:41.486Z,8.18
2023-01-30T13:24:05.839Z,8.82
2023-01-30T13:25:18.910Z,7.72
2023-01-30T13:26:37.374Z,8.30
2023-01-30T13:27:47.056Z,8.13
2023-01-30T13:28:57.266Z,8.98
2023-01-30T13:30:01.983Z,8.02
2023-01-30T13:31:11.742Z,9.32
2023-01-30T13:32:41.644Z,9.60
2023-01-30T13:33:49.845Z,9.10
2023-01-30T13:34:56.907Z,9.15
2023-01-30T13:36:22.808Z,9.32
2023-01-30T13:37:26.065Z,10.55
2023-01-30T13:38:31.108Z,8.45
2023-01-30T13:39:47.789Z,9.13
2023-01-30T13:40:57.672Z,10.05
2023-01-30T13:42:06.006Z,9.65
2023-01-30T13:43:10.195Z,9.57
2023-01-30T13:44:27.711Z,9.70
2023-01-30T13:45:36.879Z,9.43
2023-01-30T13:46:40.811Z,8.60
2023-01-30T13:48:10.415Z,9.02
2023-01-30T13:49:24.862Z,9.52
2023-01-30T13:50:41.727Z,9.73
2023-01-30T13:52:19.292Z,9.15
2023-01-30T13:53:39.834Z,9.32
2023-01-30T13:55:21.117Z,9.68
2023-01-30T13:56:49.510Z,8.93
2023-01-30T13:58:44.384Z,8.75
2023-01-30T14:00:09.631Z,8.35
2023-01-30T14:01:15.767Z,9.43
2023-01-30T14:02:22.822Z,10.40
2023-01-30T14:03:34.326Z,9.05
2023-01-30T14:04:40.475Z,8.75
2023-01-30T14:05:52.915Z,11.32
2023-01-30T14:07:33.736Z,10.05
2023-01-30T14:08:46.335Z,10.88
2023-01-30T14:10:09.453Z,10.80
2023-01-30T14:11:37.231Z,10.40
2023-01-30T14:12:54.932Z,10.20
2023-01-30T14:14:18.225Z,9.75
2023-01-30T14:15:29.236Z,10.50
2023-01-30T14:17:16.663Z,10.07
2023-01-30T14:18:36.125Z,9.57
2023-01-30T14:22:34.054Z,9.13
2023-01-30T14:23:37.832Z,8.93
2023-01-30T14:24:41.415Z,8.77
2023-01-30T14:25:48.846Z,9.52
2023-01-30T14:27:00.595Z,8.25
2023-01-30T14:28:07.605Z,8.52
2023-01-30T14:29:32.881Z,8.45
2023-01-30T14:30:50.301Z,8.55
2023-01-30T14:31:53.984Z,9.32
2023-01-30T14:33:00.293Z,8.82
2023-01-30T14:34:03.700Z,7.93
2023-01-30T14:35:06.791Z,8.23
2023-01-30T14:36:15.918Z,7.97
2023-01-30T14:37:35.065Z,8.35
2023-01-30T14:38:40.624Z,8.80
2023-01-30T14:39:53.173Z,8.48
2023-01-30T14:40:59.232Z,8.45
2023-01-30T14:42:30.489Z,8.10
2023-01-30T14:43:42.092Z,8.35
2023-01-30T14:45:04.961Z,8.82
2023-01-30T14:46:20.327Z,8.43
2023-01-30T14:47:35.112Z,9.35
2023-01-30T14:49:23.187Z,9.23
2023-01-30T14:50:26.410Z,7.93
2023-01-30T14:51:39.001Z,7.45
2023-01-30T14:52:43.340Z,8.30
2023-01-30T14:53:56.901Z,8.00
2023-01-30T14:55:00.320Z,9.02
2023-01-30T14:56:04.669Z,7.30
2023-01-30T14:57:27.710Z,8.50
2023-01-30T14:58:30.973Z,8.55
2023-01-30T14:59:36.963Z,8.15
2023-01-30T15:00:40.636Z,8.50
2023-01-30T15:02:14.379Z,8.05
2023-01-30T15:03:20.415Z,7.93
2023-01-30T15:04:32.540Z,7.60
2023-01-30T15:05:46.218Z,9.27
2023-01-30T15:06:50.214Z,8.73
2023-01-30T15:08:10.715Z,8.93
2023-01-30T15:09:22.501Z,8.75
2023-01-30T15:11:13.864Z,8.55
2023-01-30T15:13:59.714Z,8.20
2023-01-30T15:15:27.076Z,8.13
2023-01-30T15:17:08.851Z,7.53
2023-01-30T15:18:48.139Z,7.97
2023-01-30T15:20:14.049Z,9.23
2023-01-30T15:21:41.757Z,9.68
2023-01-30T15:23:40.124Z,8.30
2023-01-30T15:25:05.205Z,9.45
2023-01-30T15:26:41.102Z,8.95
2023-01-30T15:27:59.293Z,8.15
2023-01-30T15:29:39.047Z,9.50
2023-01-30T15:30:57.620Z,8.20
2023-01-30T15:32:22.169Z,5.60
2023-01-30T15:33:31.578Z,9.48
2023-01-30T15:34:35.527Z,9.10
2023-01-30T15:35:38.897Z,8.60
2023-01-30T15:36:42.506Z,9.45
2023-01-30T15:37:52.441Z,9.85
2023-01-30T15:39:06.939Z,6.95
2023-01-30T15:40:15.911Z,9.85
2023-01-30T15:41:19.251Z,9.48
2023-01-30T15:42:22.743Z,9.30
2023-01-30T15:43:40.065Z,9.20
2023-01-30T15:44:58.724Z,10.15
2023-01-30T15:46:20.171Z,8.40
2023-01-30T15:48:00.305Z,8.85
2023-01-30T15:49:49.892Z,9.00
2023-01-30T15:50:57.583Z,8.55
2023-01-30T15:52:07.048Z,9.30
2023-01-30T15:53:15.550Z,8.52